sensor_id;sensor_type;location;lat;lon;timestamp;pressure;altitude;pressure_sealevel;temperature;humidity
12172;BME280;6149;52.418;13.668;2023-01-29T00:02:16;102303.28;;;-1.27;100.00
12172;BME280;6149;52.418;13.668;2023-01-29T00:04:47;102303.41;;;-1.21;100.00
12172;BME280;6149;52.418;13.668;2023-01-29T00:07:16;102293.78;;;-1.27;100.00
12172;BME280;6149;52.418;13.668;2023-01-29T00:09:44;102293.00;;;-1.23;100.00
12172;BME280;6149;52.418;13.668;2023-01-29T00:12:11;102286.91;;;-1.25;100.00
12172;BME280;6149;52.418;13.668;2023-01-29T00:14:39;102279.13;;;-1.25;100.00
12172;BME280;6149;52.418;13.668;2023-01-29T00:17:10;102273.16;;;-1.21;100.00
12172;BME280;6149;52.418;13.668;2023-01-29T00:19:36;102272.38;;;-1.17;100.00
12172;BME280;6149;52.418;13.668;2023-01-29T00:22:04;102275.31;;;-1.00;100.00
12172;BME280;6149;52.418;13.668;2023-01-29T00:26:58;102270.81;;;-1.09;100.00
12172;BME280;6149;52.418;13.668;2023-01-29T00:29:27;102263.81;;;-1.11;100.00
12172;BME280;6149;52.418;13.668;2023-01-29T00:31:55;102262.03;;;-1.15;100.00
12172;BME280;6149;52.418;13.668;2023-01-29T00:34:24;102261.19;;;-1.14;100.00
12172;BME280;6149;52.418;13.668;2023-01-29T00:36:52;102245.72;;;-1.08;100.00
12172;BME280;6149;52.418;13.668;2023-01-29T00:39:30;102253.69;;;-1.01;100.00
12172;BME280;6149;52.418;13.668;2023-01-29T00:42:03;102253.63;;;-1.04;100.00
12172;BME280;6149;52.418;13.668;2023-01-29T00:44:50;102255.47;;;-0.98;100.00
12172;BME280;6149;52.418;13.668;2023-01-29T00:47:23;102248.41;;;-1.05;100.00
12172;BME280;6149;52.418;13.668;2023-01-29T00:49:58;102243.41;;;-0.96;100.00
12172;BME280;6149;52.418;13.668;2023-01-29T00:52:27;102241.53;;;-1.02;100.00
12172;BME280;6149;52.418;13.668;2023-01-29T00:54:56;102228.47;;;-1.06;100.00
12172;BME280;6149;52.418;13.668;2023-01-29T00:57:26;102226.03;;;-0.98;100.00
12172;BME280;6149;52.418;13.668;2023-01-29T00:59:55;102228.53;;;-1.03;100.00
12172;BME280;6149;52.418;13.668;2023-01-29T01:02:27;102242.53;;;-0.96;100.00
12172;BME280;6149;52.418;13.668;2023-01-29T01:05:17;102232.34;;;-0.86;100.00
12172;BME280;6149;52.418;13.668;2023-01-29T01:07:50;102226.06;;;-0.97;100.00
12172;BME280;6149;52.418;13.668;2023-01-29T01:10:21;102233.94;;;-0.92;100.00
12172;BME280;6149;52.418;13.668;2023-01-29T01:12:53;102236.44;;;-0.97;100.00
12172;BME280;6149;52.418;13.668;2023-01-29T01:15:23;102229.41;;;-1.03;100.00
12172;BME280;6149;52.418;13.668;2023-01-29T01:17:53;102231.09;;;-1.05;100.00
12172;BME280;6149;52.418;13.668;2023-01-29T01:20:29;102245.19;;;-0.93;100.00
12172;BME280;6149;52.418;13.668;2023-01-29T01:22:56;102234.09;;;-0.86;100.00
12172;BME280;6149;52.418;13.668;2023-01-29T01:25:25;102234.78;;;-0.93;100.00
12172;BME280;6149;52.418;13.668;2023-01-29T01:27:55;102249.47;;;-0.95;100.00
12172;BME280;6149;52.418;13.668;2023-01-29T01:30:24;102235.66;;;-0.93;100.00
12172;BME280;6149;52.418;13.668;2023-01-29T01:32:53;102231.22;;;-0.98;100.00
12172;BME280;6149;52.418;13.668;2023-01-29T01:35:23;102231.34;;;-0.92;100.00
12172;BME280;6149;52.418;13.668;2023-01-29T01:37:52;102242.72;;;-0.87;100.00
12172;BME280;6149;52.418;13.668;2023-01-29T01:40:21;102235.78;;;-0.88;100.00
12172;BME280;6149;52.418;13.668;2023-01-29T01:42:53;102230.84;;;-0.73;100.00
12172;BME280;6149;52.418;13.668;2023-01-29T01:45:25;102231.53;;;-0.83;100.00
12172;BME280;6149;52.418;13.668;2023-01-29T01:47:58;102240.13;;;-0.87;100.00
12172;BME280;6149;52.418;13.668;2023-01-29T01:50:31;102233.06;;;-0.93;100.00
12172;BME280;6149;52.418;13.668;2023-01-29T01:53:06;102229.63;;;-0.92;100.00
12172;BME280;6149;52.418;13.668;2023-01-29T01:55:38;102233.19;;;-0.87;100.00
12172;BME280;6149;52.418;13.668;2023-01-29T01:58:12;102235.72;;;-0.91;100.00
12172;BME280;6149;52.418;13.668;2023-01-29T02:00:42;102241.97;;;-0.82;100.00
12172;BME280;6149;52.418;13.668;2023-01-29T02:03:11;102237.72;;;-0.78;100.00
12172;BME280;6149;52.418;13.668;2023-01-29T02:05:57;102238.50;;;-0.82;100.00
12172;BME280;6149;52.418;13.668;2023-01-29T02:08:50;102234.13;;;-0.83;100.00
12172;BME280;6149;52.418;13.668;2023-01-29T02:11:38;102226.50;;;-0.76;100.00
12172;BME280;6149;52.418;13.668;2023-01-29T02:14:05;102224.53;;;-0.87;100.00
12172;BME280;6149;52.418;13.668;2023-01-29T02:16:33;102220.13;;;-0.91;100.00
12172;BME280;6149;52.418;13.668;2023-01-29T02:19:02;102216.06;;;-0.79;100.00
12172;BME280;6149;52.418;13.668;2023-01-29T02:21:47;102221.00;;;-0.91;100.00
12172;BME280;6149;52.418;13.668;2023-01-29T02:24:45;102215.81;;;-0.91;100.00
12172;BME280;6149;52.418;13.668;2023-01-29T02:28:14;102216.72;;;-0.89;100.00
12172;BME280;6149;52.418;13.668;2023-01-29T02:30:55;102220.13;;;-0.91;100.00
12172;BME280;6149;52.418;13.668;2023-01-29T02:33:41;102221.31;;;-0.74;100.00
12172;BME280;6149;52.418;13.668;2023-01-29T02:36:26;102209.00;;;-0.86;100.00
12172;BME280;6149;52.418;13.668;2023-01-29T02:39:00;102203.66;;;-0.93;100.00
12172;BME280;6149;52.418;13.668;2023-01-29T02:41:37;102200.13;;;-0.95;100.00
12172;BME280;6149;52.418;13.668;2023-01-29T02:44:16;102200.91;;;-0.99;100.00
12172;BME280;6149;52.418;13.668;2023-01-29T02:46:56;102209.78;;;-0.90;100.00
12172;BME280;6149;52.418;13.668;2023-01-29T02:49:33;102208.31;;;-0.77;100.00
12172;BME280;6149;52.418;13.668;2023-01-29T02:52:07;102209.81;;;-0.88;100.00
12172;BME280;6149;52.418;13.668;2023-01-29T02:54:44;102189.88;;;-0.89;100.00
12172;BME280;6149;52.418;13.668;2023-01-29T02:57:18;102190.13;;;-0.77;100.00
12172;BME280;6149;52.418;13.668;2023-01-29T02:59:54;102190.81;;;-0.86;100.00
12172;BME280;6149;52.418;13.668;2023-01-29T03:02:27;102193.34;;;-0.89;100.00
12172;BME280;6149;52.418;13.668;2023-01-29T03:04:59;102185.53;;;-0.90;100.00
12172;BME280;6149;52.418;13.668;2023-01-29T03:07:33;102187.56;;;-0.74;100.00
12172;BME280;6149;52.418;13.668;2023-01-29T03:10:16;102187.41;;;-0.83;100.00
12172;BME280;6149;52.418;13.668;2023-01-29T03:12:51;102178.78;;;-0.82;100.00
12172;BME280;6149;52.418;13.668;2023-01-29T03:15:28;102181.56;;;-0.70;100.00
12172;BME280;6149;52.418;13.668;2023-01-29T03:18:07;102184.31;;;-0.62;100.00
12172;BME280;6149;52.418;13.668;2023-01-29T03:20:41;102175.44;;;-0.74;100.00
12172;BME280;6149;52.418;13.668;2023-01-29T03:23:17;102171.97;;;-0.76;100.00
12172;BME280;6149;52.418;13.668;2023-01-29T03:25:54;102175.44;;;-0.74;100.00
12172;BME280;6149;52.418;13.668;2023-01-29T03:28:43;102171.09;;;-0.76;100.00
12172;BME280;6149;52.418;13.668;2023-01-29T03:31:31;102163.34;;;-0.75;100.00
12172;BME280;6149;52.418;13.668;2023-01-29T03:34:21;102172.84;;;-0.74;100.00
12172;BME280;6149;52.418;13.668;2023-01-29T03:36:56;102172.00;;;-0.73;100.00
12172;BME280;6149;52.418;13.668;2023-01-29T03:39:26;102168.53;;;-0.75;100.00
12172;BME280;6149;52.418;13.668;2023-01-29T03:41:59;102168.59;;;-0.70;100.00
12172;BME280;6149;52.418;13.668;2023-01-29T03:44:33;102158.31;;;-0.64;100.00
12172;BME280;6149;52.418;13.668;2023-01-29T03:47:16;102149.72;;;-0.60;100.00
12172;BME280;6149;52.418;13.668;2023-01-29T03:49:56;102151.22;;;-0.73;100.00
12172;BME280;6149;52.418;13.668;2023-01-29T03:52:31;102154.66;;;-0.77;100.00
12172;BME280;6149;52.418;13.668;2023-01-29T03:55:09;102143.50;;;-0.70;100.00
12172;BME280;6149;52.418;13.668;2023-01-29T03:57:56;102142.78;;;-0.61;100.00
12172;BME280;6149;52.418;13.668;2023-01-29T04:00:31;102139.25;;;-0.64;100.00
12172;BME280;6149;52.418;13.668;2023-01-29T04:03:08;102123.69;;;-0.64;100.00
12172;BME280;6149;52.418;13.668;2023-01-29T04:05:44;102116.78;;;-0.62;100.00
12172;BME280;6149;52.418;13.668;2023-01-29T04:08:22;102117.53;;;-0.70;100.00
12172;BME280;6149;52.418;13.668;2023-01-29T04:10:56;102116.75;;;-0.64;100.00
12172;BME280;6149;52.418;13.668;2023-01-29T04:13:30;102110.59;;;-0.69;100.00
12172;BME280;6149;52.418;13.668;2023-01-29T04:15:59;102108.03;;;-0.68;100.00
12172;BME280;6149;52.418;13.668;2023-01-29T04:18:30;102109.81;;;-0.65;100.00
12172;BME280;6149;52.418;13.668;2023-01-29T04:20:56;102101.91;;;-0.71;100.00
12172;BME280;6149;52.418;13.668;2023-01-29T04:23:26;102099.28;;;-0.73;100.00
12172;BME280;6149;52.418;13.668;2023-01-29T04:26:05;102096.72;;;-0.71;100.00
12172;BME280;6149;52.418;13.668;2023-01-29T04:28:57;102082.84;;;-0.72;100.00
12172;BME280;6149;52.418;13.668;2023-01-29T04:31:39;102079.53;;;-0.64;100.00
12172;BME280;6149;52.418;13.668;2023-01-29T04:34:22;102076.09;;;-0.62;100.00
12172;BME280;6149;52.418;13.668;2023-01-29T04:37:10;102076.06;;;-0.65;100.00
12172;BME280;6149;52.418;13.668;2023-01-29T04:39:50;102064.72;;;-0.70;100.00
12172;BME280;6149;52.418;13.668;2023-01-29T04:42:29;102061.50;;;-0.55;100.00
12172;BME280;6149;52.418;13.668;2023-01-29T04:45:09;102055.34;;;-0.60;100.00
12172;BME280;6149;52.418;13.668;2023-01-29T04:47:49;102047.63;;;-0.56;100.00
12172;BME280;6149;52.418;13.668;2023-01-29T04:50:27;102053.56;;;-0.63;100.00
12172;BME280;6149;52.418;13.668;2023-01-29T04:53:05;102058.81;;;-0.60;100.00
12172;BME280;6149;52.418;13.668;2023-01-29T04:55:40;102057.06;;;-0.61;100.00
12172;BME280;6149;52.418;13.668;2023-01-29T04:58:21;102063.16;;;-0.59;100.00
12172;BME280;6149;52.418;13.668;2023-01-29T05:00:53;102057.19;;;-0.55;100.00
12172;BME280;6149;52.418;13.668;2023-01-29T05:03:23;102062.50;;;-0.47;100.00
12172;BME280;6149;52.418;13.668;2023-01-29T05:05:54;102070.28;;;-0.47;100.00
12172;BME280;6149;52.418;13.668;2023-01-29T05:08:25;102065.91;;;-0.50;100.00
12172;BME280;6149;52.418;13.668;2023-01-29T05:10:56;102071.25;;;-0.41;100.00
12172;BME280;6149;52.418;13.668;2023-01-29T05:13:29;102072.97;;;-0.43;100.00
12172;BME280;6149;52.418;13.668;2023-01-29T05:16:07;102066.78;;;-0.49;100.00
12172;BME280;6149;52.418;13.668;2023-01-29T05:18:37;102071.09;;;-0.51;100.00
12172;BME280;6149;52.418;13.668;2023-01-29T05:21:07;102071.06;;;-0.53;100.00
12172;BME280;6149;52.418;13.668;2023-01-29T05:23:36;102061.75;;;-0.37;100.00
12172;BME280;6149;52.418;13.668;2023-01-29T05:26:03;102068.63;;;-0.42;100.00
12172;BME280;6149;52.418;13.668;2023-01-29T05:28:30;102069.50;;;-0.42;100.00
12172;BME280;6149;52.418;13.668;2023-01-29T05:30:57;102078.09;;;-0.46;100.00
12172;BME280;6149;52.418;13.668;2023-01-29T05:33:28;102073.00;;;-0.41;100.00
12172;BME280;6149;52.418;13.668;2023-01-29T05:35:57;102076.34;;;-0.48;100.00
12172;BME280;6149;52.418;13.668;2023-01-29T05:38:27;102082.41;;;-0.48;100.00
12172;BME280;6149;52.418;13.668;2023-01-29T05:40:57;102080.09;;;-0.28;100.00
12172;BME280;6149;52.418;13.668;2023-01-29T05:43:24;102078.28;;;-0.32;100.00
12172;BME280;6149;52.418;13.668;2023-01-29T05:45:53;102079.94;;;-0.40;100.00
12172;BME280;6149;52.418;13.668;2023-01-29T05:48:21;102076.34;;;-0.47;100.00
12172;BME280;6149;52.418;13.668;2023-01-29T05:50:49;102078.97;;;-0.45;100.00
12172;BME280;6149;52.418;13.668;2023-01-29T05:53:17;102083.38;;;-0.41;100.00
12172;BME280;6149;52.418;13.668;2023-01-29T05:56:00;102079.06;;;-0.41;100.00
12172;BME280;6149;52.418;13.668;2023-01-29T05:58:29;102077.25;;;-0.45;100.00
12172;BME280;6149;52.418;13.668;2023-01-29T06:00:57;102087.69;;;-0.42;100.00
12172;BME280;6149;52.418;13.668;2023-01-29T06:03:25;102093.78;;;-0.41;100.00
12172;BME280;6149;52.418;13.668;2023-01-29T06:05:53;102098.88;;;-0.47;100.00
12172;BME280;6149;52.418;13.668;2023-01-29T06:08:21;102107.63;;;-0.41;100.00
12172;BME280;6149;52.418;13.668;2023-01-29T06:10:50;102097.28;;;-0.38;100.00
12172;BME280;6149;52.418;13.668;2023-01-29T06:13:17;102108.50;;;-0.42;100.00
12172;BME280;6149;52.418;13.668;2023-01-29T06:15:45;102115.34;;;-0.45;100.00
12172;BME280;6149;52.418;13.668;2023-01-29T06:18:15;102109.28;;;-0.46;100.00
12172;BME280;6149;52.418;13.668;2023-01-29T06:20:44;102103.16;;;-0.49;100.00
12172;BME280;6149;52.418;13.668;2023-01-29T06:23:10;102106.72;;;-0.44;100.00
12172;BME280;6149;52.418;13.668;2023-01-29T06:25:41;102096.28;;;-0.46;100.00
12172;BME280;6149;52.418;13.668;2023-01-29T06:28:11;102101.72;;;-0.29;100.00
12172;BME280;6149;52.418;13.668;2023-01-29T06:30:38;102099.88;;;-0.36;100.00
12172;BME280;6149;52.418;13.668;2023-01-29T06:33:06;102104.13;;;-0.43;100.00
12172;BME280;6149;52.418;13.668;2023-01-29T06:35:34;102099.84;;;-0.41;100.00
12172;BME280;6149;52.418;13.668;2023-01-29T06:38:02;102106.75;;;-0.43;100.00
12172;BME280;6149;52.418;13.668;2023-01-29T06:40:30;102092.03;;;-0.41;100.00
12172;BME280;6149;52.418;13.668;2023-01-29T06:42:58;102097.19;;;-0.44;100.00
12172;BME280;6149;52.418;13.668;2023-01-29T06:45:29;102094.59;;;-0.44;100.00
12172;BME280;6149;52.418;13.668;2023-01-29T06:47:57;102095.41;;;-0.48;100.00
12172;BME280;6149;52.418;13.668;2023-01-29T06:50:27;102095.47;;;-0.43;100.00
12172;BME280;6149;52.418;13.668;2023-01-29T06:52:57;102104.19;;;-0.40;100.00
12172;BME280;6149;52.418;13.668;2023-01-29T06:55:24;102096.47;;;-0.34;100.00
12172;BME280;6149;52.418;13.668;2023-01-29T06:57:54;102088.66;;;-0.34;100.00
12172;BME280;6149;52.418;13.668;2023-01-29T07:00:22;102093.88;;;-0.32;100.00
12172;BME280;6149;52.418;13.668;2023-01-29T07:02:58;102107.69;;;-0.38;100.00
12172;BME280;6149;52.418;13.668;2023-01-29T07:05:26;102111.13;;;-0.39;100.00
12172;BME280;6149;52.418;13.668;2023-01-29T07:07:54;102112.81;;;-0.42;100.00
12172;BME280;6149;52.418;13.668;2023-01-29T07:10:21;102104.97;;;-0.45;100.00
12172;BME280;6149;52.418;13.668;2023-01-29T07:13:00;102101.59;;;-0.40;100.00
12172;BME280;6149;52.418;13.668;2023-01-29T07:15:31;102096.63;;;-0.23;100.00
12172;BME280;6149;52.418;13.668;2023-01-29T07:18:00;102097.41;;;-0.28;100.00
12172;BME280;6149;52.418;13.668;2023-01-29T07:20:29;102093.88;;;-0.34;100.00
12172;BME280;6149;52.418;13.668;2023-01-29T07:22:58;102092.13;;;-0.35;100.00
12172;BME280;6149;52.418;13.668;2023-01-29T07:25:25;102091.44;;;-0.23;100.00
12172;BME280;6149;52.418;13.668;2023-01-29T07:27:59;102081.00;;;-0.26;100.00
12172;BME280;6149;52.418;13.668;2023-01-29T07:30:26;102088.66;;;-0.34;100.00
12172;BME280;6149;52.418;13.668;2023-01-29T07:33:00;102084.38;;;-0.30;100.00
12172;BME280;6149;52.418;13.668;2023-01-29T07:35:29;102091.34;;;-0.29;100.00
12172;BME280;6149;52.418;13.668;2023-01-29T07:37:56;102099.97;;;-0.31;100.00
12172;BME280;6149;52.418;13.668;2023-01-29T07:40:23;102091.31;;;-0.30;100.00
12172;BME280;6149;52.418;13.668;2023-01-29T07:42:50;102082.69;;;-0.28;100.00
12172;BME280;6149;52.418;13.668;2023-01-29T07:45:18;102082.69;;;-0.28;100.00
12172;BME280;6149;52.418;13.668;2023-01-29T07:47:51;102081.94;;;-0.21;100.00
12172;BME280;6149;52.418;13.668;2023-01-29T07:50:22;102075.19;;;-0.08;100.00
12172;BME280;6149;52.418;13.668;2023-01-29T07:52:53;102081.91;;;-0.22;100.00
12172;BME280;6149;52.418;13.668;2023-01-29T07:55:22;102074.16;;;-0.21;100.00
12172;BME280;6149;52.418;13.668;2023-01-29T07:57:54;102068.16;;;-0.15;100.00
12172;BME280;6149;52.418;13.668;2023-01-29T08:00:21;102060.31;;;-0.18;100.00
12172;BME280;6149;52.418;13.668;2023-01-29T08:02:52;102057.84;;;-0.09;100.00
12172;BME280;6149;52.418;13.668;2023-01-29T08:05:24;102054.47;;;-0.04;100.00
12172;BME280;6149;52.418;13.668;2023-01-29T08:07:52;102050.88;;;-0.12;100.00
12172;BME280;6149;52.418;13.668;2023-01-29T08:10:20;102049.06;;;-0.17;100.00
12172;BME280;6149;52.418;13.668;2023-01-29T08:12:54;102057.84;;;-0.11;100.00
12172;BME280;6149;52.418;13.668;2023-01-29T08:15:26;102057.09;;;0.01;100.00
12172;BME280;6149;52.418;13.668;2023-01-29T08:17:54;102049.34;;;0.04;100.00
12172;BME280;6149;52.418;13.668;2023-01-29T08:20:22;102048.44;;;0.02;100.00
12172;BME280;6149;52.418;13.668;2023-01-29T08:22:57;102051.84;;;-0.05;100.00
12172;BME280;6149;52.418;13.668;2023-01-29T08:25:29;102058.91;;;0.07;100.00
12172;BME280;6149;52.418;13.668;2023-01-29T08:27:58;102051.94;;;0.03;100.00
12172;BME280;6149;52.418;13.668;2023-01-29T08:30:27;102048.34;;;-0.07;100.00
12172;BME280;6149;52.418;13.668;2023-01-29T08:32:57;102059.59;;;-0.08;100.00
12172;BME280;6149;52.418;13.668;2023-01-29T08:35:27;102058.84;;;-0.01;100.00
12172;BME280;6149;52.418;13.668;2023-01-29T08:38:08;102052.13;;;0.16;100.00
12172;BME280;6149;52.418;13.668;2023-01-29T08:40:35;102045.06;;;0.08;100.00
12172;BME280;6149;52.418;13.668;2023-01-29T08:43:04;102040.78;;;0.11;100.00
12172;BME280;6149;52.418;13.668;2023-01-29T08:45:57;102035.69;;;0.19;100.00
12172;BME280;6149;52.418;13.668;2023-01-29T08:48:26;102045.19;;;0.17;100.00
12172;BME280;6149;52.418;13.668;2023-01-29T08:51:00;102053.84;;;0.16;100.00
12172;BME280;6149;52.418;13.668;2023-01-29T08:53:31;102051.25;;;0.17;100.00
12172;BME280;6149;52.418;13.668;2023-01-29T08:55:58;102053.00;;;0.17;100.00
12172;BME280;6149;52.418;13.668;2023-01-29T08:58:40;102053.91;;;0.20;100.00
12172;BME280;6149;52.418;13.668;2023-01-29T09:01:08;102053.88;;;0.17;100.00
12172;BME280;6149;52.418;13.668;2023-01-29T09:03:38;102041.91;;;0.30;100.00
12172;BME280;6149;52.418;13.668;2023-01-29T09:06:07;102041.69;;;0.15;100.00
12172;BME280;6149;52.418;13.668;2023-01-29T09:08:36;102039.19;;;0.22;100.00
12172;BME280;6149;52.418;13.668;2023-01-29T09:11:04;102041.94;;;0.35;100.00
12172;BME280;6149;52.418;13.668;2023-01-29T09:13:31;102030.53;;;0.23;100.00
12172;BME280;6149;52.418;13.668;2023-01-29T09:15:58;102028.94;;;0.33;100.00
12172;BME280;6149;52.418;13.668;2023-01-29T09:18:27;102026.28;;;0.30;100.00
12172;BME280;6149;52.418;13.668;2023-01-29T09:20:56;102028.88;;;0.30;100.00
12172;BME280;6149;52.418;13.668;2023-01-29T09:23:24;102028.94;;;0.38;100.00
12172;BME280;6149;52.418;13.668;2023-01-29T09:25:54;102034.22;;;0.42;100.00
12172;BME280;6149;52.418;13.668;2023-01-29T09:28:21;102029.75;;;0.29;100.00
12172;BME280;6149;52.418;13.668;2023-01-29T09:30:48;102040.22;;;0.33;100.00
12172;BME280;6149;52.418;13.668;2023-01-29T09:33:19;102055.00;;;0.41;100.00
12172;BME280;6149;52.418;13.668;2023-01-29T09:35:47;102053.28;;;0.43;100.00
12172;BME280;6149;52.418;13.668;2023-01-29T09:38:23;102043.72;;;0.39;100.00
12172;BME280;6149;52.418;13.668;2023-01-29T09:40:58;102038.47;;;0.32;100.00
12172;BME280;6149;52.418;13.668;2023-01-29T09:43:41;102033.31;;;0.40;100.00
12172;BME280;6149;52.418;13.668;2023-01-29T09:46:19;102029.81;;;0.38;100.00
12172;BME280;6149;52.418;13.668;2023-01-29T09:49:11;102009.16;;;0.52;100.00
12172;BME280;6149;52.418;13.668;2023-01-29T09:51:56;102006.53;;;0.49;100.00
12172;BME280;6149;52.418;13.668;2023-01-29T09:54:33;102016.91;;;0.46;100.00
12172;BME280;6149;52.418;13.668;2023-01-29T09:57:09;101996.97;;;0.48;100.00
12172;BME280;6149;52.418;13.668;2023-01-29T09:59:47;102004.81;;;0.51;100.00
12172;BME280;6149;52.418;13.668;2023-01-29T10:02:28;102008.34;;;0.56;100.00
12172;BME280;6149;52.418;13.668;2023-01-29T10:05:24;101990.28;;;0.68;100.00
12172;BME280;6149;52.418;13.668;2023-01-29T10:08:26;101991.19;;;0.76;100.00
12172;BME280;6149;52.418;13.668;2023-01-29T10:11:06;101986.81;;;0.71;100.00
12172;BME280;6149;52.418;13.668;2023-01-29T10:13:49;101986.84;;;0.74;100.00
12172;BME280;6149;52.418;13.668;2023-01-29T10:16:35;101980.78;;;0.73;100.00
12172;BME280;6149;52.418;13.668;2023-01-29T10:19:29;101978.19;;;0.79;100.00
12172;BME280;6149;52.418;13.668;2023-01-29T10:22:29;101957.41;;;0.84;100.00
12172;BME280;6149;52.418;13.668;2023-01-29T10:25:11;101951.34;;;0.83;100.00
12172;BME280;6149;52.418;13.668;2023-01-29T10:27:46;101948.00;;;0.96;100.00
12172;BME280;6149;52.418;13.668;2023-01-29T10:30:29;101947.13;;;0.96;100.00
12172;BME280;6149;52.418;13.668;2023-01-29T10:33:02;101955.88;;;1.12;100.00
12172;BME280;6149;52.418;13.668;2023-01-29T10:35:33;101962.81;;;1.05;100.00
12172;BME280;6149;52.418;13.668;2023-01-29T10:38:15;101968.03;;;1.07;100.00
12172;BME280;6149;52.418;13.668;2023-01-29T10:40:53;101960.25;;;1.16;100.00
12172;BME280;6149;52.418;13.668;2023-01-29T10:43:33;101964.63;;;1.20;100.00
12172;BME280;6149;52.418;13.668;2023-01-29T10:46:16;101959.50;;;1.27;100.00
12172;BME280;6149;52.418;13.668;2023-01-29T10:49:01;101957.81;;;1.34;100.00
12172;BME280;6149;52.418;13.668;2023-01-29T10:52:07;101949.19;;;1.44;100.00
12172;BME280;6149;52.418;13.668;2023-01-29T10:54:48;101942.25;;;1.49;100.00
12172;BME280;6149;52.418;13.668;2023-01-29T10:57:41;101944.91;;;1.58;100.00
12172;BME280;6149;52.418;13.668;2023-01-29T11:00:24;101936.34;;;1.81;100.00
12172;BME280;6149;52.418;13.668;2023-01-29T11:02:55;101935.41;;;1.71;100.00
12172;BME280;6149;52.418;13.668;2023-01-29T11:05:28;101924.13;;;1.74;100.00
12172;BME280;6149;52.418;13.668;2023-01-29T11:08:02;101924.13;;;1.71;100.00
12172;BME280;6149;52.418;13.668;2023-01-29T11:10:36;101922.38;;;1.73;100.00
12172;BME280;6149;52.418;13.668;2023-01-29T11:13:12;101927.63;;;1.79;100.00
12172;BME280;6149;52.418;13.668;2023-01-29T11:15:40;101921.56;;;1.83;100.00
12172;BME280;6149;52.418;13.668;2023-01-29T11:18:13;101906.84;;;2.00;100.00
12172;BME280;6149;52.418;13.668;2023-01-29T11:20:44;101909.41;;;1.91;100.00
12172;BME280;6149;52.418;13.668;2023-01-29T11:23:26;101908.53;;;1.92;100.00
12172;BME280;6149;52.418;13.668;2023-01-29T11:25:56;101910.34;;;2.08;100.00
12172;BME280;6149;52.418;13.668;2023-01-29T11:28:38;101904.28;;;2.20;100.00
12172;BME280;6149;52.418;13.668;2023-01-29T11:31:22;101884.28;;;2.20;100.00
12172;BME280;6149;52.418;13.668;2023-01-29T11:34:01;101878.19;;;2.17;100.00
12172;BME280;6149;52.418;13.668;2023-01-29T11:36:34;101879.91;;;2.27;100.00
12172;BME280;6149;52.418;13.668;2023-01-29T11:39:12;101877.31;;;2.28;100.00
12172;BME280;6149;52.418;13.668;2023-01-29T11:41:48;101867.75;;;2.35;100.00
12172;BME280;6149;52.418;13.668;2023-01-29T11:44:27;101866.03;;;2.35;100.00
12172;BME280;6149;52.418;13.668;2023-01-29T11:47:08;101866.91;;;2.53;100.00
12172;BME280;6149;52.418;13.668;2023-01-29T11:49:39;101864.28;;;2.47;100.00
12172;BME280;6149;52.418;13.668;2023-01-29T11:52:14;101857.34;;;2.53;100.00
12172;BME280;6149;52.418;13.668;2023-01-29T11:54:45;101859.97;;;2.58;100.00
12172;BME280;6149;52.418;13.668;2023-01-29T11:57:27;101854.75;;;2.58;100.00
12172;BME280;6149;52.418;13.668;2023-01-29T11:59:59;101860.81;;;2.55;100.00
12172;BME280;6149;52.418;13.668;2023-01-29T12:02:34;101861.69;;;2.56;100.00
12172;BME280;6149;52.418;13.668;2023-01-29T12:05:13;101849.50;;;2.55;100.00
12172;BME280;6149;52.418;13.668;2023-01-29T12:07:44;101849.47;;;2.72;100.00
12172;BME280;6149;52.418;13.668;2023-01-29T12:10:30;101854.72;;;2.70;100.00
12172;BME280;6149;52.418;13.668;2023-01-29T12:13:25;101844.25;;;2.73;100.00
12172;BME280;6149;52.418;13.668;2023-01-29T12:16:13;101827.72;;;2.77;100.00
12172;BME280;6149;52.418;13.668;2023-01-29T12:18:55;101835.56;;;2.69;100.00
12172;BME280;6149;52.418;13.668;2023-01-29T12:21:30;101819.91;;;2.63;100.00
12172;BME280;6149;52.418;13.668;2023-01-29T12:24:22;101818.16;;;2.78;100.00
12172;BME280;6149;52.418;13.668;2023-01-29T12:27:00;101819.00;;;2.77;100.00
12172;BME280;6149;52.418;13.668;2023-01-29T12:29:39;101811.19;;;2.74;100.00
12172;BME280;6149;52.418;13.668;2023-01-29T12:32:31;101799.00;;;2.66;100.00
12172;BME280;6149;52.418;13.668;2023-01-29T12:35:08;101800.75;;;2.69;100.00
12172;BME280;6149;52.418;13.668;2023-01-29T12:37:48;101799.00;;;2.80;100.00
12172;BME280;6149;52.418;13.668;2023-01-29T12:40:29;101792.91;;;2.77;100.00
12172;BME280;6149;52.418;13.668;2023-01-29T12:43:03;101791.16;;;2.76;100.00
12172;BME280;6149;52.418;13.668;2023-01-29T12:45:35;101776.38;;;2.76;100.00
12172;BME280;6149;52.418;13.668;2023-01-29T12:48:07;101760.69;;;2.87;100.00
12172;BME280;6149;52.418;13.668;2023-01-29T12:50:37;101761.56;;;2.84;100.00
12172;BME280;6149;52.418;13.668;2023-01-29T12:53:18;101758.91;;;2.93;100.00
12172;BME280;6149;52.418;13.668;2023-01-29T12:55:54;101764.16;;;2.78;100.00
12172;BME280;6149;52.418;13.668;2023-01-29T12:58:29;101766.78;;;2.77;100.00
12172;BME280;6149;52.418;13.668;2023-01-29T13:01:03;101759.81;;;2.76;100.00
12172;BME280;6149;52.418;13.668;2023-01-29T13:03:46;101770.25;;;2.82;100.00
12172;BME280;6149;52.418;13.668;2023-01-29T13:06:21;101775.47;;;2.86;100.00
12172;BME280;6149;52.418;13.668;2023-01-29T13:08:56;101778.97;;;2.84;100.00
12172;BME280;6149;52.418;13.668;2023-01-29T13:11:32;101771.13;;;2.90;100.00
12172;BME280;6149;52.418;13.668;2023-01-29T13:14:06;101778.09;;;2.86;100.00
12172;BME280;6149;52.418;13.668;2023-01-29T13:16:41;101780.69;;;2.89;100.00
12172;BME280;6149;52.418;13.668;2023-01-29T13:19:19;101781.56;;;2.96;100.00
12172;BME280;6149;52.418;13.668;2023-01-29T13:21:53;101766.75;;;2.89;100.00
12172;BME280;6149;52.418;13.668;2023-01-29T13:24:33;101768.50;;;2.87;100.00